Time;durP1;ratioP1;P1;durP2;ratioP2;P2;SDS_P1;SDS_P2;PMS_P1;PMS_P2;Temp;Humidity;BMP_temperature;BMP_pressure;BME280_temperature;BME280_humidity;BME280_pressure;Samples;Min_cycle;Max_cycle;Signal;HPM_P1;HPM_P2
2023/12/03 00:00:35;;;;;;;27.40;12.50;;;-1.90;78.60;;;;;;5038299;28;20689;-75
2023/12/03 00:03:00;;;;;;;25.33;11.50;;;-2.00;78.60;;;;;;5049169;28;20184;-74
2023/12/03 00:05:26;;;;;;;26.10;11.73;;;-2.00;78.60;;;;;;5057788;28;20196;-74
2023/12/03 00:07:52;;;;;;;23.93;10.73;;;-2.00;78.70;;;;;;5045689;28;20537;-75
2023/12/03 00:10:17;;;;;;;25.03;11.57;;;-2.00;78.90;;;;;;5035268;28;20220;-73
2023/12/03 00:12:44;;;;;;;20.90;10.10;;;-1.90;79.00;;;;;;5042621;28;20281;-76
2023/12/03 00:15:09;;;;;;;19.20;9.25;;;-1.90;78.60;;;;;;5032534;28;20216;-75
2023/12/03 00:17:35;;;;;;;19.47;8.27;;;-1.90;78.40;;;;;;5040820;28;20282;-75
2023/12/03 00:20:01;;;;;;;18.93;6.93;;;-2.10;78.90;;;;;;5037400;28;20483;-75
2023/12/03 00:22:26;;;;;;;16.50;8.23;;;-2.20;79.00;;;;;;5042152;28;20185;-75
2023/12/03 00:24:52;;;;;;;19.07;9.20;;;-2.30;79.20;;;;;;5037828;28;20238;-75
2023/12/03 00:27:18;;;;;;;15.83;7.50;;;-2.30;79.30;;;;;;5041274;28;20446;-75
2023/12/03 00:29:43;;;;;;;20.97;10.73;;;-2.30;79.00;;;;;;5035431;28;20460;-74
2023/12/03 00:32:09;;;;;;;18.63;10.30;;;-2.30;78.60;;;;;;5039155;28;20181;-75
2023/12/03 00:34:38;;;;;;;18.37;9.47;;;-2.30;78.90;;;;;;5042525;28;20189;-73
2023/12/03 00:37:04;;;;;;;22.77;10.65;;;-2.40;78.90;;;;;;5042294;28;20193;-74
2023/12/03 00:39:29;;;;;;;20.23;10.33;;;-2.40;79.50;;;;;;5039038;28;20229;-73
2023/12/03 00:41:55;;;;;;;19.50;9.80;;;-2.30;79.60;;;;;;5043580;28;20187;-75
2023/12/03 00:44:21;;;;;;;21.20;9.00;;;-2.30;79.60;;;;;;5041966;28;20188;-75
2023/12/03 00:46:46;;;;;;;17.10;6.57;;;-2.20;79.90;;;;;;5058810;28;20185;-73
2023/12/03 00:49:12;;;;;;;21.40;9.70;;;-2.20;79.70;;;;;;5038286;28;20664;-74
2023/12/03 00:51:38;;;;;;;24.00;8.50;;;-2.30;79.70;;;;;;5036805;28;20255;-73
2023/12/03 00:54:07;;;;;;;19.47;10.77;;;-2.40;79.30;;;;;;5046528;28;20451;-75
2023/12/03 00:56:32;;;;;;;20.77;9.95;;;-2.40;79.70;;;;;;5037247;28;20193;-74
2023/12/03 00:58:58;;;;;;;18.63;10.63;;;-2.30;79.70;;;;;;5039721;28;20215;-73
2023/12/03 01:01:23;;;;;;;27.70;10.17;;;-2.40;79.60;;;;;;5035202;28;20587;-75
2023/12/03 01:03:52;;;;;;;23.23;10.70;;;-2.30;80.00;;;;;;5038436;28;20731;-73
2023/12/03 01:06:17;;;;;;;22.67;9.32;;;-2.10;80.20;;;;;;5035527;28;20186;-74
2023/12/03 01:08:43;;;;;;;22.30;11.00;;;-2.00;79.70;;;;;;5040850;28;20203;-74
2023/12/03 01:11:10;;;;;;;16.35;9.13;;;-1.90;79.60;;;;;;5035018;28;20257;-74
2023/12/03 01:13:36;;;;;;;25.02;10.90;;;-1.90;78.90;;;;;;5040077;28;20276;-74
2023/12/03 01:16:02;;;;;;;23.53;9.70;;;-2.10;78.00;;;;;;5040494;28;20210;-75
2023/12/03 01:18:28;;;;;;;23.33;10.02;;;-2.10;78.30;;;;;;5040930;28;20948;-75
2023/12/03 01:20:53;;;;;;;20.43;9.30;;;-2.10;78.70;;;;;;5041451;28;20211;-74
2023/12/03 01:23:19;;;;;;;22.00;9.17;;;-2.00;78.70;;;;;;5042202;28;20276;-76
2023/12/03 01:25:44;;;;;;;19.23;9.30;;;-2.00;78.90;;;;;;5040304;28;20180;-74
2023/12/03 01:28:10;;;;;;;21.70;9.30;;;-2.20;78.30;;;;;;5041988;28;20612;-74
2023/12/03 01:30:35;;;;;;;19.53;9.80;;;-2.20;78.60;;;;;;5040500;28;20338;-74
2023/12/03 01:33:01;;;;;;;21.50;9.73;;;-2.10;78.60;;;;;;5038747;28;20195;-74
2023/12/03 01:35:27;;;;;;;23.03;11.43;;;-2.20;78.00;;;;;;5038848;28;20200;-73
2023/12/03 01:37:52;;;;;;;25.40;7.90;;;-2.20;78.10;;;;;;5058594;28;20280;-74
2023/12/03 01:40:18;;;;;;;17.53;8.50;;;-2.10;78.70;;;;;;5038891;28;20215;-74
2023/12/03 01:42:43;;;;;;;20.13;9.13;;;-2.10;77.60;;;;;;5042559;28;20627;-74
2023/12/03 01:45:09;;;;;;;19.67;9.00;;;-2.20;77.80;;;;;;5044487;28;20230;-74
2023/12/03 01:47:35;;;;;;;20.80;9.50;;;-2.20;78.10;;;;;;5040151;28;20216;-74
2023/12/03 01:50:06;;;;;;;18.40;9.40;;;-2.10;77.70;;;;;;5044663;28;20220;-73
2023/12/03 01:52:33;;;;;;;19.67;8.55;;;-2.10;76.80;;;;;;5053022;28;20197;-74
2023/12/03 01:55:00;;;;;;;22.65;9.10;;;-2.20;75.70;;;;;;5043388;28;20271;-74
2023/12/03 01:57:27;;;;;;;18.85;7.90;;;-2.10;75.10;;;;;;5037831;28;20563;-74
2023/12/03 01:59:52;;;;;;;16.60;8.65;;;-2.00;73.90;;;;;;5041690;28;20229;-73
2023/12/03 02:02:18;;;;;;;17.83;8.73;;;-1.90;73.20;;;;;;5036516;28;20902;-75
2023/12/03 02:04:43;;;;;;;18.73;8.83;;;-2.00;73.60;;;;;;5042473;28;20657;-74
2023/12/03 02:07:09;;;;;;;17.27;7.83;;;-2.00;73.90;;;;;;5039521;28;20188;-73
2023/12/03 02:09:36;;;;;;;18.83;8.57;;;-2.00;74.50;;;;;;5044654;28;20682;-74
2023/12/03 02:12:02;;;;;;;20.92;9.40;;;-2.00;75.20;;;;;;5041722;28;20295;-75
2023/12/03 02:14:28;;;;;;;19.20;9.60;;;-2.00;75.90;;;;;;5044676;28;20272;-74
2023/12/03 02:16:53;;;;;;;17.13;8.77;;;-2.00;76.10;;;;;;5052073;28;20419;-73
2023/12/03 02:19:19;;;;;;;13.80;8.00;;;-2.00;76.10;;;;;;5043753;28;20276;-73
2023/12/03 02:21:44;;;;;;;17.53;7.60;;;-2.10;74.50;;;;;;5047028;28;20191;-74
2023/12/03 02:24:10;;;;;;;18.03;8.80;;;-2.10;74.60;;;;;;5046237;28;20259;-73
2023/12/03 02:26:36;;;;;;;20.43;9.33;;;-2.10;74.50;;;;;;5039546;28;20189;-75
2023/12/03 02:29:01;;;;;;;15.80;8.57;;;-2.20;74.60;;;;;;5043230;28;20276;-73
2023/12/03 02:31:29;;;;;;;15.70;8.63;;;-2.10;74.90;;;;;;5038490;28;20262;-73
2023/12/03 02:34:07;;;;;;;18.98;8.45;;;-2.00;75.20;;;;;;5040463;28;20695;-73
2023/12/03 02:36:33;;;;;;;18.15;8.27;;;-2.00;75.10;;;;;;5046951;28;20181;-74
2023/12/03 02:38:58;;;;;;;20.10;8.47;;;-2.00;73.90;;;;;;5039506;28;20223;-73
2023/12/03 02:41:24;;;;;;;18.97;8.53;;;-2.00;74.20;;;;;;5039135;28;20467;-74
2023/12/03 02:43:50;;;;;;;16.90;8.50;;;-2.00;74.50;;;;;;5040468;28;20582;-74
2023/12/03 02:46:15;;;;;;;18.10;9.17;;;-2.10;74.30;;;;;;5038148;28;20176;-74
2023/12/03 02:48:41;;;;;;;18.00;9.13;;;-2.10;74.80;;;;;;5037278;28;20185;-75
2023/12/03 02:51:07;;;;;;;17.87;9.73;;;-2.10;75.80;;;;;;5042054;28;20228;-74
2023/12/03 02:53:35;;;;;;;17.70;9.30;;;-2.10;75.80;;;;;;5036249;28;20216;-74
2023/12/03 02:56:00;;;;;;;19.13;9.25;;;-2.10;75.80;;;;;;5050389;28;20423;-73
2023/12/03 02:58:27;;;;;;;19.63;8.93;;;-2.10;76.50;;;;;;5041899;28;20335;-74
2023/12/03 03:00:52;;;;;;;16.92;8.20;;;-2.10;75.90;;;;;;5041374;28;20306;-74
2023/12/03 03:03:18;;;;;;;13.47;7.37;;;-2.20;75.80;;;;;;5041534;28;21109;-74
2023/12/03 03:05:43;;;;;;;19.93;8.77;;;-2.10;75.90;;;;;;5048846;28;20200;-75
2023/12/03 03:08:09;;;;;;;20.70;9.80;;;-2.10;75.80;;;;;;5042774;28;20201;-73
2023/12/03 03:10:35;;;;;;;17.37;9.13;;;-2.10;76.10;;;;;;5046945;28;20208;-73
2023/12/03 03:13:00;;;;;;;11.70;5.80;;;-2.20;76.20;;;;;;5041708;28;20185;-73
2023/12/03 03:15:26;;;;;;;14.17;7.30;;;-2.10;75.80;;;;;;5045695;28;20969;-73
2023/12/03 03:17:52;;;;;;;15.80;8.97;;;-2.10;75.50;;;;;;5046020;28;21366;-73
2023/12/03 03:20:21;;;;;;;18.37;8.73;;;-2.10;74.30;;;;;;5048513;28;20204;-74
2023/12/03 03:22:47;;;;;;;17.23;8.75;;;-2.10;74.80;;;;;;5045528;28;20180;-75
2023/12/03 03:25:13;;;;;;;17.03;8.10;;;-2.10;75.50;;;;;;5048305;28;20300;-74
2023/12/03 03:27:39;;;;;;;18.07;9.63;;;-2.00;76.10;;;;;;5044963;28;20457;-74
2023/12/03 03:30:06;;;;;;;18.83;8.40;;;-2.10;75.50;;;;;;5043072;28;20470;-74
2023/12/03 03:32:32;;;;;;;18.52;9.60;;;-2.00;75.80;;;;;;5051704;28;20184;-74
2023/12/03 03:34:58;;;;;;;12.93;7.83;;;-2.00;76.50;;;;;;5048176;28;20177;-74
2023/12/03 03:37:23;;;;;;;21.53;8.63;;;-2.00;76.50;;;;;;5056561;28;20192;-74
2023/12/03 03:39:49;;;;;;;15.37;8.60;;;-2.00;76.10;;;;;;5044554;28;20428;-74
2023/12/03 03:42:15;;;;;;;17.97;7.60;;;-2.10;75.20;;;;;;5041931;28;20188;-75
2023/12/03 03:44:40;;;;;;;13.93;8.50;;;-2.10;74.90;;;;;;5045807;28;20193;-75
2023/12/03 03:47:06;;;;;;;18.40;9.60;;;-2.20;75.70;;;;;;5046395;28;20211;-75
2023/12/03 03:49:31;;;;;;;12.90;6.93;;;-2.10;76.20;;;;;;5047558;28;20209;-74
2023/12/03 03:51:57;;;;;;;20.80;9.00;;;-2.10;76.20;;;;;;5054225;28;20208;-76
2023/12/03 03:54:23;;;;;;;16.53;7.33;;;-2.20;74.60;;;;;;5044905;28;20181;-75
2023/12/03 03:56:48;;;;;;;17.03;8.53;;;-2.30;74.00;;;;;;5050343;28;20189;-74
2023/12/03 03:59:14;;;;;;;15.77;7.30;;;-2.20;74.20;;;;;;5038747;28;20220;-76
2023/12/03 04:01:43;;;;;;;12.67;7.33;;;-2.10;74.30;;;;;;5041446;28;20661;-74
2023/12/03 04:04:09;;;;;;;19.02;8.52;;;-2.10;73.90;;;;;;5037840;28;20181;-74
2023/12/03 04:06:46;;;;;;;19.10;8.75;;;-2.10;73.60;;;;;;5047668;28;20184;-74
2023/12/03 04:09:12;;;;;;;17.00;9.32;;;-2.10;74.50;;;;;;5038073;28;20211;-77
2023/12/03 04:11:44;;;;;;;19.23;9.45;;;-2.00;75.20;;;;;;5045513;28;20209;-75
2023/12/03 04:14:12;;;;;;;19.70;9.63;;;-2.10;76.10;;;;;;5038356;28;20327;-74
2023/12/03 04:16:38;;;;;;;19.65;8.32;;;-2.00;77.00;;;;;;5044458;28;20185;-74
2023/12/03 04:19:05;;;;;;;19.00;9.23;;;-1.90;77.60;;;;;;5045575;28;20208;-74
2023/12/03 04:21:30;;;;;;;19.75;8.93;;;-1.80;78.10;;;;;;5045278;28;20446;-74
2023/12/03 04:23:57;;;;;;;19.47;9.30;;;-1.80;78.60;;;;;;5044447;28;20184;-74
2023/12/03 04:26:23;;;;;;;21.67;9.75;;;-1.80;78.70;;;;;;5047821;28;20209;-74
2023/12/03 04:28:49;;;;;;;19.08;9.75;;;-1.90;78.90;;;;;;5041170;28;20189;-76
2023/12/03 04:31:27;;;;;;;19.33;9.27;;;-1.90;78.90;;;;;;5045262;28;20209;-75
2023/12/03 04:33:55;;;;;;;24.30;8.70;;;-1.80;79.20;;;;;;5044816;28;20192;-74
2023/12/03 04:36:26;;;;;;;21.67;10.02;;;-1.90;78.70;;;;;;5041644;28;20193;-75
2023/12/03 04:38:52;;;;;;;18.20;7.88;;;-2.00;78.30;;;;;;5047605;28;20212;-74
2023/12/03 04:41:17;;;;;;;21.30;9.63;;;-2.10;77.70;;;;;;5043669;28;20207;-74
2023/12/03 04:43:43;;;;;;;15.70;8.53;;;-2.20;77.30;;;;;;5047290;28;20455;-74
2023/12/03 04:46:09;;;;;;;19.17;8.97;;;-2.20;77.30;;;;;;5038918;28;20188;-74
2023/12/03 04:48:36;;;;;;;21.27;10.53;;;-2.30;77.00;;;;;;5046223;28;20212;-74
2023/12/03 04:51:01;;;;;;;23.02;10.77;;;-2.40;77.80;;;;;;5039289;28;20555;-74
2023/12/03 04:53:27;;;;;;;21.87;10.37;;;-2.50;77.80;;;;;;5042911;28;20207;-74
2023/12/03 04:55:53;;;;;;;19.30;10.13;;;-2.60;78.10;;;;;;5036928;28;20292;-74
2023/12/03 04:58:19;;;;;;;23.37;10.73;;;-2.50;78.60;;;;;;5043701;28;20209;-73
2023/12/03 05:00:44;;;;;;;24.20;9.23;;;-2.60;78.30;;;;;;5035896;28;20464;-73
2023/12/03 05:03:10;;;;;;;18.90;10.20;;;-2.70;78.40;;;;;;5046683;28;20176;-73
2023/12/03 05:05:36;;;;;;;21.80;9.93;;;-2.70;78.10;;;;;;5038188;28;20731;-74
2023/12/03 05:08:01;;;;;;;19.90;10.10;;;-2.70;78.00;;;;;;5049603;28;20283;-75
2023/12/03 05:10:29;;;;;;;25.10;10.60;;;-2.70;78.00;;;;;;5033558;28;21007;-76
2023/12/03 05:12:54;;;;;;;25.17;10.63;;;-2.70;78.60;;;;;;5045139;28;20215;-74
2023/12/03 05:15:20;;;;;;;20.67;11.50;;;-2.70;79.30;;;;;;5037888;28;20582;-74
2023/12/03 05:17:46;;;;;;;18.20;10.20;;;-2.80;79.50;;;;;;5045336;28;20263;-75
2023/12/03 05:20:12;;;;;;;22.93;10.80;;;-2.90;79.70;;;;;;5040796;28;20620;-73
2023/12/03 05:22:37;;;;;;;23.17;10.80;;;-3.00;80.00;;;;;;5046152;28;20191;-75
2023/12/03 05:25:03;;;;;;;24.20;11.83;;;-3.10;80.50;;;;;;5045705;28;20522;-74
2023/12/03 05:27:29;;;;;;;20.07;10.80;;;-3.10;80.80;;;;;;5045753;28;20207;-75
2023/12/03 05:29:54;;;;;;;22.30;10.50;;;-3.20;80.90;;;;;;5036086;28;20870;-74
2023/12/03 05:32:20;;;;;;;21.50;10.20;;;-3.20;81.40;;;;;;5039899;28;20189;-74
2023/12/03 05:34:46;;;;;;;20.70;10.30;;;-3.20;81.70;;;;;;5043083;28;20283;-75
2023/12/03 05:37:12;;;;;;;19.57;9.17;;;-3.30;81.80;;;;;;5040043;28;20560;-74
2023/12/03 05:39:38;;;;;;;25.05;11.27;;;-3.40;81.80;;;;;;5036119;28;20494;-76
2023/12/03 05:42:04;;;;;;;24.35;11.18;;;-3.50;82.20;;;;;;5042745;28;20653;-74
2023/12/03 05:44:30;;;;;;;22.70;11.00;;;-3.50;82.40;;;;;;5040942;28;20279;-75
2023/12/03 05:46:56;;;;;;;25.20;11.20;;;-3.60;82.50;;;;;;5041615;28;21159;-76
2023/12/03 05:49:21;;;;;;;23.57;10.80;;;-3.60;82.80;;;;;;5036355;28;20220;-75
2023/12/03 05:51:47;;;;;;;21.20;10.87;;;-3.70;83.00;;;;;;5039789;28;20184;-74
2023/12/03 05:54:13;;;;;;;19.92;10.75;;;-3.80;83.00;;;;;;5042123;28;20263;-77
2023/12/03 05:56:39;;;;;;;23.63;12.80;;;-3.90;83.10;;;;;;5042234;28;20624;-73
2023/12/03 05:59:04;;;;;;;26.00;10.87;;;-3.90;83.40;;;;;;5040433;28;20477;-75
2023/12/03 06:01:30;;;;;;;25.30;11.23;;;-4.00;83.60;;;;;;5039638;28;20612;-74
2023/12/03 06:03:56;;;;;;;25.60;10.60;;;-4.00;83.70;;;;;;5038714;28;20211;-75
2023/12/03 06:06:21;;;;;;;25.30;11.30;;;-4.00;84.00;;;;;;5042549;28;20193;-75
2023/12/03 06:08:48;;;;;;;26.57;12.10;;;-4.00;84.30;;;;;;5044492;28;20212;-75
2023/12/03 06:11:13;;;;;;;23.48;10.48;;;-4.00;84.30;;;;;;5038792;28;20575;-76
2023/12/03 06:13:39;;;;;;;26.60;11.87;;;-4.10;84.30;;;;;;5045660;28;20192;-74
2023/12/03 06:16:05;;;;;;;30.33;12.47;;;-4.10;84.40;;;;;;5049893;28;20176;-75
2023/12/03 06:18:31;;;;;;;30.08;12.10;;;-4.20;84.60;;;;;;5043701;28;20205;-75
2023/12/03 06:20:56;;;;;;;24.13;12.40;;;-4.20;84.70;;;;;;5037712;28;20215;-74
2023/12/03 06:23:23;;;;;;;26.53;11.33;;;-4.10;84.90;;;;;;5041623;28;20680;-75
2023/12/03 06:25:48;;;;;;;31.20;13.95;;;-4.20;84.90;;;;;;5036875;28;20189;-74
2023/12/03 06:28:14;;;;;;;29.40;12.93;;;-4.20;84.70;;;;;;5042241;28;20187;-75
2023/12/03 06:30:40;;;;;;;28.93;11.90;;;-4.20;84.70;;;;;;5036563;28;20238;-75
2023/12/03 06:33:05;;;;;;;28.17;10.90;;;-4.20;84.70;;;;;;5042834;28;20184;-74
2023/12/03 06:35:31;;;;;;;35.00;13.63;;;-4.20;84.60;;;;;;5041264;28;20188;-75
2023/12/03 06:37:57;;;;;;;23.93;11.73;;;-4.20;84.60;;;;;;5044127;28;20220;-74
2023/12/03 06:40:22;;;;;;;33.10;14.10;;;-4.10;84.70;;;;;;5041743;28;20545;-74
2023/12/03 06:42:48;;;;;;;30.97;13.73;;;-4.20;84.70;;;;;;5042566;28;20193;-74
2023/12/03 06:45:14;;;;;;;30.67;13.03;;;-4.20;84.70;;;;;;5042532;28;20745;-75
2023/12/03 06:47:39;;;;;;;27.80;11.83;;;-4.30;84.70;;;;;;5039490;28;20213;-74
2023/12/03 06:50:05;;;;;;;28.10;12.20;;;-4.20;85.00;;;;;;5041970;28;20238;-74
2023/12/03 06:52:31;;;;;;;31.52;13.98;;;-4.20;85.20;;;;;;5040661;28;20185;-74
2023/12/03 06:54:57;;;;;;;31.20;13.27;;;-4.20;85.00;;;;;;5061398;28;20683;-75
2023/12/03 06:57:22;;;;;;;30.30;11.97;;;-4.30;85.00;;;;;;5060707;28;20185;-73
2023/12/03 06:59:48;;;;;;;28.37;12.20;;;-4.30;85.20;;;;;;5065809;28;20232;-75
2023/12/03 07:02:13;;;;;;;26.90;12.43;;;-4.10;85.50;;;;;;5060413;28;20220;-74
2023/12/03 07:04:39;;;;;;;27.83;12.53;;;-4.00;85.50;;;;;;5063121;28;20676;-73
2023/12/03 07:07:05;;;;;;;28.03;13.20;;;-4.00;85.30;;;;;;5051239;28;20562;-73
2023/12/03 07:09:31;;;;;;;28.30;12.33;;;-4.10;85.30;;;;;;5051505;28;20223;-75
2023/12/03 07:11:57;;;;;;;24.17;12.02;;;-4.00;85.30;;;;;;5036592;28;20299;-74
2023/12/03 07:14:22;;;;;;;27.47;12.00;;;-4.10;85.20;;;;;;5042820;28;20263;-74
2023/12/03 07:16:48;;;;;;;25.17;11.77;;;-4.00;85.20;;;;;;5037041;28;20502;-75
2023/12/03 07:19:13;;;;;;;26.30;12.67;;;-4.00;85.20;;;;;;5043181;28;20212;-74
2023/12/03 07:21:39;;;;;;;32.60;13.90;;;-4.00;84.90;;;;;;5041605;28;20676;-74
2023/12/03 07:24:05;;;;;;;26.27;12.13;;;-4.10;84.70;;;;;;5045672;28;20173;-75
2023/12/03 07:26:31;;;;;;;29.23;12.20;;;-4.10;84.70;;;;;;5036365;28;20230;-75
2023/12/03 07:28:57;;;;;;;28.87;11.73;;;-4.10;84.70;;;;;;5042793;28;20782;-76
2023/12/03 07:31:23;;;;;;;32.30;13.15;;;-4.00;84.90;;;;;;5035324;28;20288;-76
2023/12/03 07:33:48;;;;;;;24.10;12.17;;;-4.00;85.00;;;;;;5041652;28;20280;-76
2023/12/03 07:36:14;;;;;;;22.30;12.17;;;-3.90;84.90;;;;;;5040156;28;20184;-75
2023/12/03 07:38:40;;;;;;;28.63;13.00;;;-4.00;84.90;;;;;;5040568;28;20308;-77
2023/12/03 07:41:10;;;;;;;27.45;12.27;;;-3.90;84.90;;;;;;5042864;28;20204;-75
2023/12/03 07:43:36;;;;;;;26.33;12.13;;;-3.90;84.90;;;;;;5044344;28;20271;-76
2023/12/03 07:46:01;;;;;;;28.13;13.57;;;-3.80;84.90;;;;;;5043273;28;21016;-75
2023/12/03 07:48:27;;;;;;;31.40;12.00;;;-3.80;84.90;;;;;;5046376;28;20195;-74
2023/12/03 07:50:53;;;;;;;27.80;12.17;;;-3.80;84.70;;;;;;5047037;28;20530;-73
2023/12/03 07:53:19;;;;;;;26.50;11.50;;;-3.70;84.90;;;;;;5053215;28;20216;-73
2023/12/03 07:55:44;;;;;;;27.70;13.20;;;-3.70;84.60;;;;;;5045520;28;20201;-74
2023/12/03 07:58:10;;;;;;;28.60;13.27;;;-3.60;84.30;;;;;;5044188;28;20187;-74
2023/12/03 08:00:37;;;;;;;29.60;12.40;;;-3.70;84.00;;;;;;5037981;28;20309;-73
2023/12/03 08:03:03;;;;;;;27.58;11.85;;;-3.60;84.10;;;;;;5039963;28;20216;-74
2023/12/03 08:05:28;;;;;;;31.23;13.10;;;-3.60;83.80;;;;;;5044641;28;20219;-73
2023/12/03 08:07:54;;;;;;;28.87;11.43;;;-3.80;82.70;;;;;;5040066;28;20443;-72
2023/12/03 08:10:19;;;;;;;30.67;11.60;;;-3.90;82.50;;;;;;5040251;28;20259;-72
2023/12/03 08:12:45;;;;;;;26.87;12.70;;;-3.90;82.70;;;;;;5038671;28;20645;-74
2023/12/03 08:15:11;;;;;;;31.00;14.13;;;-3.90;83.00;;;;;;5044526;28;20192;-74
2023/12/03 08:17:37;;;;;;;26.33;12.43;;;-3.90;83.10;;;;;;5041398;28;20427;-74
2023/12/03 08:20:05;;;;;;;25.77;11.80;;;-3.90;83.10;;;;;;5047149;28;20209;-73
2023/12/03 08:22:31;;;;;;;32.88;14.25;;;-3.90;83.30;;;;;;5048438;28;20248;-74
2023/12/03 08:24:57;;;;;;;32.47;13.73;;;-3.90;83.30;;;;;;5047713;28;20180;-73
2023/12/03 08:27:22;;;;;;;37.47;14.90;;;-3.90;83.30;;;;;;5041608;28;20203;-74
2023/12/03 08:29:48;;;;;;;32.00;14.30;;;-3.90;83.40;;;;;;5047542;28;20338;-74
2023/12/03 08:32:14;;;;;;;32.13;13.47;;;-3.90;83.40;;;;;;5045463;28;20431;-75
2023/12/03 08:34:42;;;;;;;33.03;14.10;;;-3.80;83.40;;;;;;5049725;28;20230;-76
2023/12/03 08:37:07;;;;;;;31.30;13.10;;;-3.80;83.40;;;;;;5045992;28;20267;-74
2023/12/03 08:39:33;;;;;;;28.57;13.40;;;-3.80;83.30;;;;;;5047899;28;20436;-76
2023/12/03 08:41:58;;;;;;;30.97;13.10;;;-3.80;83.30;;;;;;5040986;28;20200;-74
2023/12/03 08:44:25;;;;;;;28.87;12.70;;;-3.80;83.30;;;;;;5044704;28;20193;-74
2023/12/03 08:46:51;;;;;;;28.92;13.98;;;-3.80;83.30;;;;;;5043768;28;20183;-74
2023/12/03 08:49:17;;;;;;;35.83;15.70;;;-3.70;83.40;;;;;;5045955;28;20558;-73
2023/12/03 08:51:43;;;;;;;31.07;14.07;;;-3.80;83.40;;;;;;5051132;28;20704;-74
2023/12/03 08:54:08;;;;;;;30.83;13.70;;;-3.80;83.40;;;;;;5040808;28;20185;-74
2023/12/03 08:56:34;;;;;;;29.87;13.30;;;-3.60;83.80;;;;;;5039684;28;20438;-74
2023/12/03 08:59:00;;;;;;;32.80;15.50;;;-3.50;84.00;;;;;;5036039;28;20932;-74
2023/12/03 09:01:25;;;;;;;28.53;13.30;;;-3.50;83.80;;;;;;5038610;28;20209;-75
2023/12/03 09:03:51;;;;;;;27.40;13.60;;;-3.50;83.80;;;;;;5038820;28;20617;-73
2023/12/03 09:06:17;;;;;;;31.00;13.77;;;-3.30;84.10;;;;;;5046045;28;20215;-79
2023/12/03 09:08:43;;;;;;;29.88;13.70;;;-3.30;83.70;;;;;;5046287;28;20235;-79
2023/12/03 09:11:09;;;;;;;33.03;15.17;;;-3.20;84.00;;;;;;5052054;28;20205;-80
2023/12/03 09:13:35;;;;;;;33.05;13.48;;;-3.10;84.00;;;;;;5058430;28;20185;-80
2023/12/03 09:16:00;;;;;;;25.77;13.50;;;-3.00;83.80;;;;;;5053701;28;20187;-81
2023/12/03 09:18:26;;;;;;;27.03;13.07;;;-2.80;83.70;;;;;;5051884;28;20278;-78
2023/12/03 09:20:52;;;;;;;30.50;12.67;;;-2.70;82.40;;;;;;5059472;28;20239;-81
2023/12/03 09:23:18;;;;;;;34.37;13.47;;;-2.70;81.50;;;;;;5044538;28;20186;-80
2023/12/03 09:25:43;;;;;;;29.75;12.80;;;-2.70;81.70;;;;;;5054181;28;20188;-80
2023/12/03 09:28:11;;;;;;;32.40;13.87;;;-2.70;81.70;;;;;;5047321;28;20184;-79
2023/12/03 09:30:37;;;;;;;26.15;12.00;;;-2.60;81.40;;;;;;5061423;28;20554;-79
2023/12/03 09:33:03;;;;;;;24.57;13.67;;;-2.60;81.40;;;;;;5056045;28;20185;-81
2023/12/03 09:35:30;;;;;;;32.78;14.05;;;-2.60;81.20;;;;;;5061094;28;20439;-81
2023/12/03 09:37:56;;;;;;;33.55;14.43;;;-2.60;80.90;;;;;;5053525;28;20712;-81
2023/12/03 09:40:23;;;;;;;31.90;13.63;;;-2.60;81.20;;;;;;5047306;28;20260;-76
2023/12/03 09:42:50;;;;;;;29.88;13.02;;;-2.50;81.50;;;;;;5048225;28;20430;-76
2023/12/03 09:45:19;;;;;;;31.13;12.25;;;-2.40;81.40;;;;;;5041992;28;20752;-76
2023/12/03 09:47:53;;;;;;;26.55;13.18;;;-2.30;81.10;;;;;;5037516;28;20330;-76
2023/12/03 09:50:20;;;;;;;30.55;13.20;;;-2.20;80.20;;;;;;5040316;28;20220;-75
2023/12/03 09:52:51;;;;;;;33.58;14.20;;;-2.20;80.00;;;;;;5040889;28;20189;-75
2023/12/03 09:55:18;;;;;;;30.05;13.57;;;-2.20;79.90;;;;;;5039789;28;20184;-76
2023/12/03 09:57:48;;;;;;;27.05;13.30;;;-2.30;79.60;;;;;;5041596;28;20189;-76
2023/12/03 10:00:15;;;;;;;26.88;12.75;;;-2.30;79.50;;;;;;5040928;28;20271;-76
2023/12/03 10:02:41;;;;;;;25.15;12.43;;;-2.20;79.50;;;;;;5046470;28;20192;-75
2023/12/03 10:05:07;;;;;;;20.83;10.77;;;-2.20;79.60;;;;;;5062768;28;20185;-76
2023/12/03 10:07:33;;;;;;;29.03;12.27;;;-2.20;79.60;;;;;;5043898;28;20207;-77
2023/12/03 10:10:00;;;;;;;29.08;12.88;;;-2.20;79.30;;;;;;5041591;28;20458;-75
2023/12/03 10:12:39;;;;;;;25.08;10.82;;;-2.10;79.00;;;;;;5045589;28;20188;-78
2023/12/03 10:15:05;;;;;;;34.38;12.93;;;-2.20;79.00;;;;;;5064561;28;20191;-79
2023/12/03 10:17:30;;;;;;;30.20;12.73;;;-2.00;79.00;;;;;;5042882;28;20189;-77
2023/12/03 10:20:23;;;;;;;29.77;12.83;;;-1.80;79.00;;;;;;5039856;28;20226;-76
2023/12/03 10:22:49;;;;;;;27.48;12.57;;;-1.70;78.90;;;;;;5061270;28;20223;-75
2023/12/03 10:25:34;;;;;;;35.08;12.80;;;-1.50;77.80;;;;;;5047529;28;20199;-76
2023/12/03 10:28:05;;;;;;;26.58;13.10;;;-1.20;77.60;;;;;;5043124;28;20242;-77
2023/12/03 10:30:31;;;;;;;29.98;12.10;;;-1.10;77.30;;;;;;5046509;28;20249;-76
2023/12/03 10:32:57;;;;;;;24.17;11.00;;;-0.90;77.00;;;;;;5054937;28;20192;-76
2023/12/03 10:35:24;;;;;;;22.63;10.77;;;-0.80;75.90;;;;;;5045640;28;20180;-75
2023/12/03 10:37:50;;;;;;;26.48;11.40;;;-0.70;75.90;;;;;;5038630;28;20509;-77
2023/12/03 10:40:18;;;;;;;31.95;12.95;;;-0.70;75.70;;;;;;5042253;28;20212;-76
2023/12/03 10:42:44;;;;;;;29.33;14.35;;;-0.70;75.80;;;;;;5040976;28;20187;-75
2023/12/03 10:45:12;;;;;;;24.80;11.60;;;-0.60;75.80;;;;;;5045456;28;20183;-76
2023/12/03 10:47:38;;;;;;;29.92;12.70;;;-0.50;76.20;;;;;;5035872;28;20541;-77
2023/12/03 10:50:06;;;;;;;23.83;11.02;;;-0.30;76.20;;;;;;5046782;28;20212;-77
2023/12/03 10:52:33;;;;;;;25.08;12.20;;;0.00;75.90;;;;;;5048071;28;20203;-77
2023/12/03 10:54:59;;;;;;;26.67;11.75;;;0.30;74.30;;;;;;5061124;28;20294;-77
2023/12/03 10:57:29;;;;;;;25.00;10.80;;;0.20;73.60;;;;;;5043239;28;20275;-78
2023/12/03 11:00:12;;;;;;;22.15;11.27;;;0.10;73.30;;;;;;5062630;28;20334;-77
2023/12/03 11:02:54;;;;;;;23.63;12.55;;;-0.20;73.90;;;;;;5050585;28;20182;-76
2023/12/03 11:05:31;;;;;;;25.95;11.63;;;-0.30;74.20;;;;;;5053487;28;20177;-77
2023/12/03 11:07:59;;;;;;;29.25;12.55;;;-0.30;74.80;;;;;;5056952;28;20211;-78
2023/12/03 11:10:26;;;;;;;26.15;12.18;;;-0.60;74.90;;;;;;5045600;28;20299;-76
2023/12/03 11:12:51;;;;;;;27.02;12.25;;;-0.60;75.40;;;;;;5047623;28;20196;-76
2023/12/03 11:15:18;;;;;;;32.90;12.40;;;-0.60;75.70;;;;;;5038746;28;20215;-75
2023/12/03 11:17:45;;;;;;;20.40;11.95;;;-0.80;75.80;;;;;;5041757;28;21082;-76
2023/12/03 11:20:16;;;;;;;28.15;12.80;;;-0.70;76.20;;;;;;5043087;28;20292;-77
2023/12/03 11:23:08;;;;;;;21.10;11.40;;;-0.60;76.40;;;;;;5049490;28;20191;-76
2023/12/03 11:25:38;;;;;;;22.17;11.07;;;-0.60;76.40;;;;;;5040185;28;20192;-76
2023/12/03 11:28:04;;;;;;;24.45;11.50;;;-0.60;76.10;;;;;;5046825;28;20173;-77
2023/12/03 11:30:36;;;;;;;26.20;13.10;;;-0.60;75.90;;;;;;5042103;28;20204;-77
2023/12/03 11:33:15;;;;;;;24.83;11.40;;;-0.70;76.40;;;;;;5043676;28;20438;-77
2023/12/03 11:35:42;;;;;;;26.02;11.65;;;-0.60;76.80;;;;;;5042721;28;20188;-77
2023/12/03 11:38:30;;;;;;;29.38;12.68;;;-0.60;76.20;;;;;;5044072;28;20180;-77
2023/12/03 11:40:56;;;;;;;25.90;11.30;;;-0.70;76.20;;;;;;5041058;28;20212;-77
2023/12/03 11:43:26;;;;;;;24.87;12.40;;;-0.60;76.80;;;;;;5046306;28;20735;-77
2023/12/03 11:45:52;;;;;;;18.55;10.40;;;-0.50;76.20;;;;;;5047058;28;20219;-79
2023/12/03 11:48:19;;;;;;;26.23;12.10;;;-0.50;76.10;;;;;;5043569;28;20199;-77
2023/12/03 11:50:47;;;;;;;25.65;12.25;;;-0.60;76.20;;;;;;5043252;28;20208;-78
2023/12/03 11:53:15;;;;;;;24.52;12.43;;;-0.60;76.50;;;;;;5045375;28;20213;-78
2023/12/03 11:55:47;;;;;;;28.58;11.68;;;-0.50;76.70;;;;;;5048166;28;20177;-77
2023/12/03 11:58:13;;;;;;;22.92;11.70;;;-0.40;76.70;;;;;;5044312;28;20196;-77
2023/12/03 12:00:41;;;;;;;29.65;12.88;;;-0.50;75.90;;;;;;5045841;28;20205;-76
2023/12/03 12:03:07;;;;;;;24.08;11.38;;;-0.50;76.10;;;;;;5045604;28;20223;-76
2023/12/03 12:05:42;;;;;;;21.45;11.05;;;-0.50;76.40;;;;;;5047734;28;20193;-76
2023/12/03 12:08:08;;;;;;;25.85;11.82;;;-0.40;76.70;;;;;;5051632;28;20199;-76
2023/12/03 12:10:34;;;;;;;25.60;11.32;;;-0.30;76.70;;;;;;5044188;28;20239;-76
2023/12/03 12:13:02;;;;;;;27.83;11.57;;;-0.20;76.10;;;;;;5042537;28;20185;-77
2023/12/03 12:15:28;;;;;;;21.23;9.90;;;-0.30;76.20;;;;;;5053814;28;20205;-76
2023/12/03 12:17:53;;;;;;;29.27;11.67;;;-0.20;76.20;;;;;;5041662;28;20231;-77
2023/12/03 12:20:26;;;;;;;25.40;11.63;;;-0.20;75.40;;;;;;5046944;28;21003;-76
2023/12/03 12:22:53;;;;;;;21.55;11.65;;;-0.20;75.50;;;;;;5043391;28;20181;-77
2023/12/03 12:25:20;;;;;;;24.98;12.25;;;-0.20;75.90;;;;;;5042246;28;21075;-76
2023/12/03 12:27:47;;;;;;;27.50;12.45;;;-0.10;75.80;;;;;;5042946;28;20192;-77